sensor_id;sensor_type;location;lat;lon;timestamp;temperature;humidity
24226;DHT22;51462;51.422;5.514;2023-07-09T00:00:49;25.40;99.90
24226;DHT22;51462;51.422;5.514;2023-07-09T00:03:15;25.10;99.90
24226;DHT22;51462;51.422;5.514;2023-07-09T00:05:42;25.10;99.90
24226;DHT22;51462;51.422;5.514;2023-07-09T00:08:28;25.00;99.90
24226;DHT22;51462;51.422;5.514;2023-07-09T00:10:55;24.90;99.90
24226;DHT22;51462;51.422;5.514;2023-07-09T00:13:22;25.10;99.90
24226;DHT22;51462;51.422;5.514;2023-07-09T00:15:48;25.10;99.90
24226;DHT22;51462;51.422;5.514;2023-07-09T00:18:14;25.00;99.90
24226;DHT22;51462;51.422;5.514;2023-07-09T00:20:40;25.10;99.90
24226;DHT22;51462;51.422;5.514;2023-07-09T00:23:09;25.00;99.90
24226;DHT22;51462;51.422;5.514;2023-07-09T00:25:35;24.80;99.90
24226;DHT22;51462;51.422;5.514;2023-07-09T00:28:01;24.60;99.90
24226;DHT22;51462;51.422;5.514;2023-07-09T00:30:27;24.50;99.90
24226;DHT22;51462;51.422;5.514;2023-07-09T00:32:53;24.60;99.90
24226;DHT22;51462;51.422;5.514;2023-07-09T00:35:20;24.40;99.90
24226;DHT22;51462;51.422;5.514;2023-07-09T00:37:47;24.10;99.90
24226;DHT22;51462;51.422;5.514;2023-07-09T00:40:22;24.10;99.90
24226;DHT22;51462;51.422;5.514;2023-07-09T00:42:53;24.20;99.90
24226;DHT22;51462;51.422;5.514;2023-07-09T00:45:22;24.20;99.90
24226;DHT22;51462;51.422;5.514;2023-07-09T00:48:00;24.30;99.90
24226;DHT22;51462;51.422;5.514;2023-07-09T00:52:58;24.20;99.90
24226;DHT22;51462;51.422;5.514;2023-07-09T00:55:30;24.20;99.90
24226;DHT22;51462;51.422;5.514;2023-07-09T00:58:02;24.10;99.90
24226;DHT22;51462;51.422;5.514;2023-07-09T01:00:36;23.90;99.90
24226;DHT22;51462;51.422;5.514;2023-07-09T01:03:09;23.90;99.90
24226;DHT22;51462;51.422;5.514;2023-07-09T01:05:37;23.90;99.90
24226;DHT22;51462;51.422;5.514;2023-07-09T01:08:05;23.90;99.90
24226;DHT22;51462;51.422;5.514;2023-07-09T01:10:30;23.90;99.90
24226;DHT22;51462;51.422;5.514;2023-07-09T01:12:56;24.30;99.90
24226;DHT22;51462;51.422;5.514;2023-07-09T01:15:22;24.30;99.90
24226;DHT22;51462;51.422;5.514;2023-07-09T01:17:47;24.40;99.90
24226;DHT22;51462;51.422;5.514;2023-07-09T01:20:18;24.10;99.90
24226;DHT22;51462;51.422;5.514;2023-07-09T01:22:51;24.20;99.90
24226;DHT22;51462;51.422;5.514;2023-07-09T01:25:20;24.10;99.90
24226;DHT22;51462;51.422;5.514;2023-07-09T01:27:47;23.80;99.90
24226;DHT22;51462;51.422;5.514;2023-07-09T01:30:22;23.80;99.90
24226;DHT22;51462;51.422;5.514;2023-07-09T01:32:49;24.10;99.90
24226;DHT22;51462;51.422;5.514;2023-07-09T01:35:17;24.00;99.90
24226;DHT22;51462;51.422;5.514;2023-07-09T01:37:44;23.90;99.90
24226;DHT22;51462;51.422;5.514;2023-07-09T01:40:11;23.80;99.90
24226;DHT22;51462;51.422;5.514;2023-07-09T01:42:38;23.70;99.90
24226;DHT22;51462;51.422;5.514;2023-07-09T01:45:05;23.60;99.90
24226;DHT22;51462;51.422;5.514;2023-07-09T01:47:32;23.40;99.90
24226;DHT22;51462;51.422;5.514;2023-07-09T01:49:57;23.40;99.90
24226;DHT22;51462;51.422;5.514;2023-07-09T01:52:27;23.40;99.90
24226;DHT22;51462;51.422;5.514;2023-07-09T01:54:54;23.50;99.90
24226;DHT22;51462;51.422;5.514;2023-07-09T01:57:22;23.60;99.90
24226;DHT22;51462;51.422;5.514;2023-07-09T01:59:49;23.70;99.90
24226;DHT22;51462;51.422;5.514;2023-07-09T02:02:16;23.50;99.90
24226;DHT22;51462;51.422;5.514;2023-07-09T02:04:53;23.10;99.90
24226;DHT22;51462;51.422;5.514;2023-07-09T02:07:20;23.30;99.90
24226;DHT22;51462;51.422;5.514;2023-07-09T02:09:46;23.20;99.90
24226;DHT22;51462;51.422;5.514;2023-07-09T02:12:13;23.10;99.90
24226;DHT22;51462;51.422;5.514;2023-07-09T02:14:40;23.00;99.90
24226;DHT22;51462;51.422;5.514;2023-07-09T02:17:06;23.00;99.90
24226;DHT22;51462;51.422;5.514;2023-07-09T02:19:32;23.10;99.90
24226;DHT22;51462;51.422;5.514;2023-07-09T02:21:57;23.00;99.90
24226;DHT22;51462;51.422;5.514;2023-07-09T02:24:23;23.00;99.90
24226;DHT22;51462;51.422;5.514;2023-07-09T02:26:58;22.90;99.90
24226;DHT22;51462;51.422;5.514;2023-07-09T02:29:25;23.00;99.90
24226;DHT22;51462;51.422;5.514;2023-07-09T02:31:52;23.20;99.90
24226;DHT22;51462;51.422;5.514;2023-07-09T02:34:19;23.00;99.90
24226;DHT22;51462;51.422;5.514;2023-07-09T02:36:45;22.90;99.90
24226;DHT22;51462;51.422;5.514;2023-07-09T02:39:13;22.90;99.90
24226;DHT22;51462;51.422;5.514;2023-07-09T02:41:39;22.90;99.90
24226;DHT22;51462;51.422;5.514;2023-07-09T02:44:05;22.80;99.90
24226;DHT22;51462;51.422;5.514;2023-07-09T02:46:32;22.80;99.90
24226;DHT22;51462;51.422;5.514;2023-07-09T02:48:58;22.80;99.90
24226;DHT22;51462;51.422;5.514;2023-07-09T02:51:24;22.80;99.90
24226;DHT22;51462;51.422;5.514;2023-07-09T02:53:54;22.70;99.90
24226;DHT22;51462;51.422;5.514;2023-07-09T02:56:20;22.70;99.90
24226;DHT22;51462;51.422;5.514;2023-07-09T02:58:46;22.60;99.90
24226;DHT22;51462;51.422;5.514;2023-07-09T03:01:11;22.70;99.90
24226;DHT22;51462;51.422;5.514;2023-07-09T03:03:38;22.70;99.90
24226;DHT22;51462;51.422;5.514;2023-07-09T03:06:04;22.60;99.90
24226;DHT22;51462;51.422;5.514;2023-07-09T03:08:30;22.50;99.90
24226;DHT22;51462;51.422;5.514;2023-07-09T03:10:56;22.40;99.90
24226;DHT22;51462;51.422;5.514;2023-07-09T03:13:21;22.40;99.90
24226;DHT22;51462;51.422;5.514;2023-07-09T03:15:57;22.40;99.90
24226;DHT22;51462;51.422;5.514;2023-07-09T03:18:23;22.30;99.90
24226;DHT22;51462;51.422;5.514;2023-07-09T03:20:49;22.30;99.90
24226;DHT22;51462;51.422;5.514;2023-07-09T03:23:14;22.30;99.90
24226;DHT22;51462;51.422;5.514;2023-07-09T03:25:44;22.20;99.90
24226;DHT22;51462;51.422;5.514;2023-07-09T03:28:11;22.30;99.90
24226;DHT22;51462;51.422;5.514;2023-07-09T03:30:41;22.20;99.90
24226;DHT22;51462;51.422;5.514;2023-07-09T03:33:07;22.20;99.90
24226;DHT22;51462;51.422;5.514;2023-07-09T03:35:33;22.80;99.90
24226;DHT22;51462;51.422;5.514;2023-07-09T03:38:00;22.80;99.90
24226;DHT22;51462;51.422;5.514;2023-07-09T03:40:26;22.50;99.90
24226;DHT22;51462;51.422;5.514;2023-07-09T03:42:51;22.40;99.90
24226;DHT22;51462;51.422;5.514;2023-07-09T03:45:17;22.30;99.90
24226;DHT22;51462;51.422;5.514;2023-07-09T03:47:43;22.30;99.90
24226;DHT22;51462;51.422;5.514;2023-07-09T03:50:10;22.30;99.90
24226;DHT22;51462;51.422;5.514;2023-07-09T03:52:36;22.20;99.90
24226;DHT22;51462;51.422;5.514;2023-07-09T03:55:02;22.20;99.90
24226;DHT22;51462;51.422;5.514;2023-07-09T03:57:30;22.10;99.90
24226;DHT22;51462;51.422;5.514;2023-07-09T03:59:56;22.10;99.90
24226;DHT22;51462;51.422;5.514;2023-07-09T04:02:21;22.10;99.90
24226;DHT22;51462;51.422;5.514;2023-07-09T04:04:47;22.10;99.90
24226;DHT22;51462;51.422;5.514;2023-07-09T04:07:13;22.00;99.90
24226;DHT22;51462;51.422;5.514;2023-07-09T04:09:38;22.00;99.90
24226;DHT22;51462;51.422;5.514;2023-07-09T04:12:04;22.00;99.90
24226;DHT22;51462;51.422;5.514;2023-07-09T04:14:30;21.90;99.90
24226;DHT22;51462;51.422;5.514;2023-07-09T04:16:55;21.90;99.90
24226;DHT22;51462;51.422;5.514;2023-07-09T04:19:23;21.90;99.90
24226;DHT22;51462;51.422;5.514;2023-07-09T04:21:48;21.80;99.90
24226;DHT22;51462;51.422;5.514;2023-07-09T04:24:16;21.70;99.90
24226;DHT22;51462;51.422;5.514;2023-07-09T04:26:42;21.70;99.90
24226;DHT22;51462;51.422;5.514;2023-07-09T04:29:08;21.80;99.90
24226;DHT22;51462;51.422;5.514;2023-07-09T04:31:34;21.80;99.90
24226;DHT22;51462;51.422;5.514;2023-07-09T04:33:59;21.90;99.90
24226;DHT22;51462;51.422;5.514;2023-07-09T04:36:25;21.80;99.90
24226;DHT22;51462;51.422;5.514;2023-07-09T04:38:51;21.90;99.90
24226;DHT22;51462;51.422;5.514;2023-07-09T04:41:17;21.90;99.90
24226;DHT22;51462;51.422;5.514;2023-07-09T04:43:43;21.90;99.90
24226;DHT22;51462;51.422;5.514;2023-07-09T04:46:09;21.90;99.90
24226;DHT22;51462;51.422;5.514;2023-07-09T04:48:34;21.90;99.90
24226;DHT22;51462;51.422;5.514;2023-07-09T04:51:00;21.90;99.90
24226;DHT22;51462;51.422;5.514;2023-07-09T04:53:26;21.90;99.90
24226;DHT22;51462;51.422;5.514;2023-07-09T04:55:52;21.90;99.90
24226;DHT22;51462;51.422;5.514;2023-07-09T04:58:18;21.90;99.90
24226;DHT22;51462;51.422;5.514;2023-07-09T05:00:46;22.00;99.90
24226;DHT22;51462;51.422;5.514;2023-07-09T05:03:11;21.90;99.90
24226;DHT22;51462;51.422;5.514;2023-07-09T05:05:44;21.90;99.90
24226;DHT22;51462;51.422;5.514;2023-07-09T05:08:09;22.00;99.90
24226;DHT22;51462;51.422;5.514;2023-07-09T05:10:43;22.10;99.90
24226;DHT22;51462;51.422;5.514;2023-07-09T05:13:10;22.10;99.90
24226;DHT22;51462;51.422;5.514;2023-07-09T05:15:37;22.20;99.90
24226;DHT22;51462;51.422;5.514;2023-07-09T05:18:05;22.10;99.90
24226;DHT22;51462;51.422;5.514;2023-07-09T05:20:30;22.20;99.90
24226;DHT22;51462;51.422;5.514;2023-07-09T05:22:56;22.20;99.90
24226;DHT22;51462;51.422;5.514;2023-07-09T05:25:21;22.30;99.90
24226;DHT22;51462;51.422;5.514;2023-07-09T05:27:47;22.30;99.90
24226;DHT22;51462;51.422;5.514;2023-07-09T05:30:12;22.40;99.90
24226;DHT22;51462;51.422;5.514;2023-07-09T05:32:38;22.40;99.90
24226;DHT22;51462;51.422;5.514;2023-07-09T05:35:04;22.50;99.90
24226;DHT22;51462;51.422;5.514;2023-07-09T05:37:30;22.70;99.90
24226;DHT22;51462;51.422;5.514;2023-07-09T05:39:56;22.70;99.90
24226;DHT22;51462;51.422;5.514;2023-07-09T05:42:22;22.80;99.90
24226;DHT22;51462;51.422;5.514;2023-07-09T05:44:47;23.10;99.90
24226;DHT22;51462;51.422;5.514;2023-07-09T05:47:13;23.10;99.90
24226;DHT22;51462;51.422;5.514;2023-07-09T05:49:39;23.30;99.90
24226;DHT22;51462;51.422;5.514;2023-07-09T05:52:04;23.40;99.90
24226;DHT22;51462;51.422;5.514;2023-07-09T05:54:31;23.40;99.90
24226;DHT22;51462;51.422;5.514;2023-07-09T05:56:56;23.40;99.90
24226;DHT22;51462;51.422;5.514;2023-07-09T05:59:22;23.40;99.90
24226;DHT22;51462;51.422;5.514;2023-07-09T06:01:47;23.40;99.90
24226;DHT22;51462;51.422;5.514;2023-07-09T06:04:13;23.40;99.90
24226;DHT22;51462;51.422;5.514;2023-07-09T06:06:40;23.40;99.90
24226;DHT22;51462;51.422;5.514;2023-07-09T06:09:07;23.40;99.90
24226;DHT22;51462;51.422;5.514;2023-07-09T06:11:34;23.40;99.90
24226;DHT22;51462;51.422;5.514;2023-07-09T06:13:59;23.50;99.90
24226;DHT22;51462;51.422;5.514;2023-07-09T06:16:27;23.60;99.90
24226;DHT22;51462;51.422;5.514;2023-07-09T06:18:52;23.60;99.90
24226;DHT22;51462;51.422;5.514;2023-07-09T06:21:18;23.60;99.90
24226;DHT22;51462;51.422;5.514;2023-07-09T06:23:45;23.60;99.90
24226;DHT22;51462;51.422;5.514;2023-07-09T06:26:11;23.60;99.90
24226;DHT22;51462;51.422;5.514;2023-07-09T06:28:36;23.70;99.90
24226;DHT22;51462;51.422;5.514;2023-07-09T06:31:02;23.70;99.90
24226;DHT22;51462;51.422;5.514;2023-07-09T06:33:28;23.70;99.90
24226;DHT22;51462;51.422;5.514;2023-07-09T06:35:57;23.70;99.90
24226;DHT22;51462;51.422;5.514;2023-07-09T06:38:23;23.70;99.90
24226;DHT22;51462;51.422;5.514;2023-07-09T06:40:49;23.70;99.90
24226;DHT22;51462;51.422;5.514;2023-07-09T06:43:16;23.80;99.90
24226;DHT22;51462;51.422;5.514;2023-07-09T06:45:51;23.90;99.90
24226;DHT22;51462;51.422;5.514;2023-07-09T06:48:17;24.00;99.90
24226;DHT22;51462;51.422;5.514;2023-07-09T06:50:43;24.00;99.90
24226;DHT22;51462;51.422;5.514;2023-07-09T06:53:09;24.00;99.90
24226;DHT22;51462;51.422;5.514;2023-07-09T06:55:35;24.00;99.90
24226;DHT22;51462;51.422;5.514;2023-07-09T06:58:01;24.00;99.90
24226;DHT22;51462;51.422;5.514;2023-07-09T07:00:26;24.10;99.90
24226;DHT22;51462;51.422;5.514;2023-07-09T07:02:52;24.10;99.90
24226;DHT22;51462;51.422;5.514;2023-07-09T07:05:18;24.10;99.90
24226;DHT22;51462;51.422;5.514;2023-07-09T07:07:44;24.20;99.90
24226;DHT22;51462;51.422;5.514;2023-07-09T07:10:10;24.20;99.90
24226;DHT22;51462;51.422;5.514;2023-07-09T07:12:44;24.20;99.90
24226;DHT22;51462;51.422;5.514;2023-07-09T07:15:10;24.20;99.90
24226;DHT22;51462;51.422;5.514;2023-07-09T07:17:37;24.20;99.90
24226;DHT22;51462;51.422;5.514;2023-07-09T07:20:03;24.40;99.90
24226;DHT22;51462;51.422;5.514;2023-07-09T07:22:28;24.30;99.90
24226;DHT22;51462;51.422;5.514;2023-07-09T07:24:54;24.30;99.90
24226;DHT22;51462;51.422;5.514;2023-07-09T07:27:19;24.70;99.90
24226;DHT22;51462;51.422;5.514;2023-07-09T07:29:45;24.70;99.90
24226;DHT22;51462;51.422;5.514;2023-07-09T07:32:11;24.50;99.90
24226;DHT22;51462;51.422;5.514;2023-07-09T07:34:36;24.70;99.90
24226;DHT22;51462;51.422;5.514;2023-07-09T07:37:02;24.80;99.90
24226;DHT22;51462;51.422;5.514;2023-07-09T07:39:28;24.80;99.90
24226;DHT22;51462;51.422;5.514;2023-07-09T07:41:54;24.70;99.90
24226;DHT22;51462;51.422;5.514;2023-07-09T07:44:20;24.70;99.90
24226;DHT22;51462;51.422;5.514;2023-07-09T07:46:46;24.90;99.90
24226;DHT22;51462;51.422;5.514;2023-07-09T07:49:12;24.80;99.90
24226;DHT22;51462;51.422;5.514;2023-07-09T07:51:37;24.80;99.90
24226;DHT22;51462;51.422;5.514;2023-07-09T07:54:03;25.30;99.90
24226;DHT22;51462;51.422;5.514;2023-07-09T07:56:29;25.30;99.90
24226;DHT22;51462;51.422;5.514;2023-07-09T07:58:55;25.30;99.90
24226;DHT22;51462;51.422;5.514;2023-07-09T08:01:21;25.60;99.90
24226;DHT22;51462;51.422;5.514;2023-07-09T08:03:46;25.70;99.90
24226;DHT22;51462;51.422;5.514;2023-07-09T08:06:12;25.60;99.90
24226;DHT22;51462;51.422;5.514;2023-07-09T08:08:38;25.90;99.90
24226;DHT22;51462;51.422;5.514;2023-07-09T08:11:06;25.80;99.90
24226;DHT22;51462;51.422;5.514;2023-07-09T08:13:37;26.10;99.90
24226;DHT22;51462;51.422;5.514;2023-07-09T08:16:06;26.40;99.90
24226;DHT22;51462;51.422;5.514;2023-07-09T08:18:32;26.00;99.90
24226;DHT22;51462;51.422;5.514;2023-07-09T08:21:01;25.90;99.90
24226;DHT22;51462;51.422;5.514;2023-07-09T08:23:27;25.80;99.90
24226;DHT22;51462;51.422;5.514;2023-07-09T08:25:56;26.10;99.90
24226;DHT22;51462;51.422;5.514;2023-07-09T08:28:22;26.50;99.90
24226;DHT22;51462;51.422;5.514;2023-07-09T08:30:51;26.70;99.90
24226;DHT22;51462;51.422;5.514;2023-07-09T08:33:16;26.30;99.90
24226;DHT22;51462;51.422;5.514;2023-07-09T08:35:43;26.00;99.90
24226;DHT22;51462;51.422;5.514;2023-07-09T08:38:09;25.80;99.90
24226;DHT22;51462;51.422;5.514;2023-07-09T08:40:40;25.90;99.90
24226;DHT22;51462;51.422;5.514;2023-07-09T08:46:20;26.40;99.90
24226;DHT22;51462;51.422;5.514;2023-07-09T08:48:48;26.50;99.90
24226;DHT22;51462;51.422;5.514;2023-07-09T08:51:17;26.50;99.90
24226;DHT22;51462;51.422;5.514;2023-07-09T08:53:58;26.80;99.90
24226;DHT22;51462;51.422;5.514;2023-07-09T08:56:25;26.80;99.90
24226;DHT22;51462;51.422;5.514;2023-07-09T08:58:53;27.10;99.90
24226;DHT22;51462;51.422;5.514;2023-07-09T09:01:27;26.80;99.90
24226;DHT22;51462;51.422;5.514;2023-07-09T09:04:04;26.70;99.90
24226;DHT22;51462;51.422;5.514;2023-07-09T09:06:31;26.80;99.90
24226;DHT22;51462;51.422;5.514;2023-07-09T09:09:21;26.70;99.90
24226;DHT22;51462;51.422;5.514;2023-07-09T09:14:43;27.00;99.90
24226;DHT22;51462;51.422;5.514;2023-07-09T09:17:18;27.10;99.90
24226;DHT22;51462;51.422;5.514;2023-07-09T09:20:03;27.50;99.90
24226;DHT22;51462;51.422;5.514;2023-07-09T09:25:28;27.60;99.90
24226;DHT22;51462;51.422;5.514;2023-07-09T09:27:55;28.00;99.90
24226;DHT22;51462;51.422;5.514;2023-07-09T09:30:23;28.00;99.90
24226;DHT22;51462;51.422;5.514;2023-07-09T09:32:54;27.80;99.90
24226;DHT22;51462;51.422;5.514;2023-07-09T09:35:27;27.70;99.90
24226;DHT22;51462;51.422;5.514;2023-07-09T09:37:55;27.40;99.90
24226;DHT22;51462;51.422;5.514;2023-07-09T09:40:22;27.40;99.90
24226;DHT22;51462;51.422;5.514;2023-07-09T09:42:49;27.00;99.90
24226;DHT22;51462;51.422;5.514;2023-07-09T09:45:17;26.90;99.90
24226;DHT22;51462;51.422;5.514;2023-07-09T09:47:45;26.90;99.90
24226;DHT22;51462;51.422;5.514;2023-07-09T09:50:18;27.00;99.90
24226;DHT22;51462;51.422;5.514;2023-07-09T09:52:45;27.60;99.90
24226;DHT22;51462;51.422;5.514;2023-07-09T09:55:27;27.80;99.90
24226;DHT22;51462;51.422;5.514;2023-07-09T09:57:54;27.70;99.90
24226;DHT22;51462;51.422;5.514;2023-07-09T10:00:24;27.40;99.90
24226;DHT22;51462;51.422;5.514;2023-07-09T10:02:56;27.50;99.90
24226;DHT22;51462;51.422;5.514;2023-07-09T10:05:37;27.80;99.90
24226;DHT22;51462;51.422;5.514;2023-07-09T10:10:52;27.70;99.90
24226;DHT22;51462;51.422;5.514;2023-07-09T10:13:29;27.70;99.90
24226;DHT22;51462;51.422;5.514;2023-07-09T10:16:03;28.30;99.90
24226;DHT22;51462;51.422;5.514;2023-07-09T10:27:40;28.20;99.90
24226;DHT22;51462;51.422;5.514;2023-07-09T10:33:09;29.10;99.90
24226;DHT22;51462;51.422;5.514;2023-07-09T10:35:54;29.50;99.90
24226;DHT22;51462;51.422;5.514;2023-07-09T10:38:36;29.20;99.90
24226;DHT22;51462;51.422;5.514;2023-07-09T10:41:09;29.10;99.90
24226;DHT22;51462;51.422;5.514;2023-07-09T10:43:41;29.10;99.90
24226;DHT22;51462;51.422;5.514;2023-07-09T10:46:21;28.80;99.90
24226;DHT22;51462;51.422;5.514;2023-07-09T10:48:51;29.80;99.90
24226;DHT22;51462;51.422;5.514;2023-07-09T10:54:37;29.10;99.90
24226;DHT22;51462;51.422;5.514;2023-07-09T10:56:35;29.70;99.90
24226;DHT22;51462;51.422;5.514;2023-07-09T11:01:35;30.00;99.90
24226;DHT22;51462;51.422;5.514;2023-07-09T11:04:08;30.60;99.90
24226;DHT22;51462;51.422;5.514;2023-07-09T11:06:45;30.40;99.90
24226;DHT22;51462;51.422;5.514;2023-07-09T11:09:31;31.00;99.90
24226;DHT22;51462;51.422;5.514;2023-07-09T11:12:06;30.50;99.90
24226;DHT22;51462;51.422;5.514;2023-07-09T11:14:47;31.20;99.90
24226;DHT22;51462;51.422;5.514;2023-07-09T11:17:17;32.00;99.90
24226;DHT22;51462;51.422;5.514;2023-07-09T11:19:48;31.90;99.90
24226;DHT22;51462;51.422;5.514;2023-07-09T11:22:36;32.30;99.90
24226;DHT22;51462;51.422;5.514;2023-07-09T11:25:13;31.60;99.90
24226;DHT22;51462;51.422;5.514;2023-07-09T11:27:51;31.60;99.90
24226;DHT22;51462;51.422;5.514;2023-07-09T11:30:28;31.80;99.90
24226;DHT22;51462;51.422;5.514;2023-07-09T11:32:58;31.90;99.90
24226;DHT22;51462;51.422;5.514;2023-07-09T11:35:49;31.50;99.90
24226;DHT22;51462;51.422;5.514;2023-07-09T11:38:22;32.00;99.90
24226;DHT22;51462;51.422;5.514;2023-07-09T11:40:54;32.30;99.90
24226;DHT22;51462;51.422;5.514;2023-07-09T11:45:55;32.60;99.90
24226;DHT22;51462;51.422;5.514;2023-07-09T11:48:27;33.00;99.90
24226;DHT22;51462;51.422;5.514;2023-07-09T11:50:55;32.90;99.90
24226;DHT22;51462;51.422;5.514;2023-07-09T11:55:51;32.70;99.90
24226;DHT22;51462;51.422;5.514;2023-07-09T11:58:18;32.70;99.90
24226;DHT22;51462;51.422;5.514;2023-07-09T12:00:46;32.70;99.90
24226;DHT22;51462;51.422;5.514;2023-07-09T12:03:34;32.70;99.90
24226;DHT22;51462;51.422;5.514;2023-07-09T12:06:04;32.60;99.90
24226;DHT22;51462;51.422;5.514;2023-07-09T12:08:35;32.70;99.90
24226;DHT22;51462;51.422;5.514;2023-07-09T12:11:02;32.60;99.90
24226;DHT22;51462;51.422;5.514;2023-07-09T12:13:27;32.20;99.90
24226;DHT22;51462;51.422;5.514;2023-07-09T12:15:53;32.10;99.90
24226;DHT22;51462;51.422;5.514;2023-07-09T12:18:19;32.20;99.90
24226;DHT22;51462;51.422;5.514;2023-07-09T12:20:51;32.20;99.90
24226;DHT22;51462;51.422;5.514;2023-07-09T12:23:30;32.20;99.90
24226;DHT22;51462;51.422;5.514;2023-07-09T12:26:00;32.10;99.90
24226;DHT22;51462;51.422;5.514;2023-07-09T12:28:26;32.00;99.90
24226;DHT22;51462;51.422;5.514;2023-07-09T12:30:53;31.80;99.90
24226;DHT22;51462;51.422;5.514;2023-07-09T12:33:21;31.80;99.90
24226;DHT22;51462;51.422;5.514;2023-07-09T12:35:49;31.70;99.90
24226;DHT22;51462;51.422;5.514;2023-07-09T12:38:22;31.50;99.90
24226;DHT22;51462;51.422;5.514;2023-07-09T12:40:50;31.30;99.90
24226;DHT22;51462;51.422;5.514;2023-07-09T12:43:21;31.20;99.90
24226;DHT22;51462;51.422;5.514;2023-07-09T12:45:48;31.10;99.90
24226;DHT22;51462;51.422;5.514;2023-07-09T12:48:14;31.00;99.90
24226;DHT22;51462;51.422;5.514;2023-07-09T12:50:40;31.00;99.90
24226;DHT22;51462;51.422;5.514;2023-07-09T12:53:18;30.90;99.90
24226;DHT22;51462;51.422;5.514;2023-07-09T12:55:47;30.80;99.90
24226;DHT22;51462;51.422;5.514;2023-07-09T12:58:25;30.70;99.90
24226;DHT22;51462;51.422;5.514;2023-07-09T13:00:53;30.60;99.90
24226;DHT22;51462;51.422;5.514;2023-07-09T13:03:30;30.70;99.90
24226;DHT22;51462;51.422;5.514;2023-07-09T13:06:01;30.50;99.90
24226;DHT22;51462;51.422;5.514;2023-07-09T13:08:31;30.50;99.90
24226;DHT22;51462;51.422;5.514;2023-07-09T13:10:57;30.20;99.90
24226;DHT22;51462;51.422;5.514;2023-07-09T13:13:23;30.10;99.90
24226;DHT22;51462;51.422;5.514;2023-07-09T13:15:54;30.00;99.90
24226;DHT22;51462;51.422;5.514;2023-07-09T13:18:24;29.90;99.90
24226;DHT22;51462;51.422;5.514;2023-07-09T13:20:50;29.90;99.90
24226;DHT22;51462;51.422;5.514;2023-07-09T13:23:19;29.90;99.90
24226;DHT22;51462;51.422;5.514;2023-07-09T13:25:46;29.70;99.90
24226;DHT22;51462;51.422;5.514;2023-07-09T13:30:41;29.50;99.90
24226;DHT22;51462;51.422;5.514;2023-07-09T13:33:10;29.50;99.90
24226;DHT22;51462;51.422;5.514;2023-07-09T13:35:35;29.40;99.90
24226;DHT22;51462;51.422;5.514;2023-07-09T13:38:01;29.30;99.90
24226;DHT22;51462;51.422;5.514;2023-07-09T13:40:30;29.40;99.90
24226;DHT22;51462;51.422;5.514;2023-07-09T13:42:55;29.30;99.90
24226;DHT22;51462;51.422;5.514;2023-07-09T13:45:24;29.20;99.90
24226;DHT22;51462;51.422;5.514;2023-07-09T13:47:51;28.90;99.90
24226;DHT22;51462;51.422;5.514;2023-07-09T13:50:18;28.70;99.90
24226;DHT22;51462;51.422;5.514;2023-07-09T13:52:44;28.50;99.90
24226;DHT22;51462;51.422;5.514;2023-07-09T13:55:20;27.90;99.90
24226;DHT22;51462;51.422;5.514;2023-07-09T13:57:47;27.10;99.90
24226;DHT22;51462;51.422;5.514;2023-07-09T14:00:13;26.20;99.90
24226;DHT22;51462;51.422;5.514;2023-07-09T14:02:39;25.90;99.90
24226;DHT22;51462;51.422;5.514;2023-07-09T14:05:08;25.70;99.90
24226;DHT22;51462;51.422;5.514;2023-07-09T14:07:36;25.20;99.90
24226;DHT22;51462;51.422;5.514;2023-07-09T14:10:05;25.40;99.90
24226;DHT22;51462;51.422;5.514;2023-07-09T14:12:31;25.20;99.90
24226;DHT22;51462;51.422;5.514;2023-07-09T14:14:59;24.60;99.90
24226;DHT22;51462;51.422;5.514;2023-07-09T14:17:26;24.50;99.90
24226;DHT22;51462;51.422;5.514;2023-07-09T14:19:52;24.70;99.90
24226;DHT22;51462;51.422;5.514;2023-07-09T14:22:23;24.30;99.90
24226;DHT22;51462;51.422;5.514;2023-07-09T14:24:51;24.90;99.90
24226;DHT22;51462;51.422;5.514;2023-07-09T14:27:17;24.80;99.90
24226;DHT22;51462;51.422;5.514;2023-07-09T14:29:42;25.20;99.90
24226;DHT22;51462;51.422;5.514;2023-07-09T14:32:38;25.10;99.90
24226;DHT22;51462;51.422;5.514;2023-07-09T14:35:24;25.60;99.90
24226;DHT22;51462;51.422;5.514;2023-07-09T14:37:53;25.40;99.90
24226;DHT22;51462;51.422;5.514;2023-07-09T14:40:25;25.60;99.90
24226;DHT22;51462;51.422;5.514;2023-07-09T14:42:50;25.20;99.90
24226;DHT22;51462;51.422;5.514;2023-07-09T14:47:42;25.40;99.90
24226;DHT22;51462;51.422;5.514;2023-07-09T14:50:08;25.60;99.90
24226;DHT22;51462;51.422;5.514;2023-07-09T14:52:35;25.40;99.90
24226;DHT22;51462;51.422;5.514;2023-07-09T14:55:01;25.20;99.90
24226;DHT22;51462;51.422;5.514;2023-07-09T14:57:27;25.20;99.90
24226;DHT22;51462;51.422;5.514;2023-07-09T14:59:56;25.20;99.90
24226;DHT22;51462;51.422;5.514;2023-07-09T15:04:58;25.80;99.90
24226;DHT22;51462;51.422;5.514;2023-07-09T15:07:23;25.60;99.90
24226;DHT22;51462;51.422;5.514;2023-07-09T15:09:58;25.60;99.90
24226;DHT22;51462;51.422;5.514;2023-07-09T15:12:28;26.00;99.90
24226;DHT22;51462;51.422;5.514;2023-07-09T15:15:22;25.80;99.90
24226;DHT22;51462;51.422;5.514;2023-07-09T15:17:46;25.60;99.90
24226;DHT22;51462;51.422;5.514;2023-07-09T15:20:14;25.80;99.90
24226;DHT22;51462;51.422;5.514;2023-07-09T15:22:40;25.60;99.90
24226;DHT22;51462;51.422;5.514;2023-07-09T15:25:15;25.50;99.90
24226;DHT22;51462;51.422;5.514;2023-07-09T15:27:42;25.70;99.90
24226;DHT22;51462;51.422;5.514;2023-07-09T15:30:24;25.90;99.90
24226;DHT22;51462;51.422;5.514;2023-07-09T15:32:50;26.10;99.90
24226;DHT22;51462;51.422;5.514;2023-07-09T15:35:18;26.20;99.90
24226;DHT22;51462;51.422;5.514;2023-07-09T15:37:45;26.30;99.90
24226;DHT22;51462;51.422;5.514;2023-07-09T15:40:25;26.50;99.90
24226;DHT22;51462;51.422;5.514;2023-07-09T15:42:54;26.40;99.90
24226;DHT22;51462;51.422;5.514;2023-07-09T15:45:20;26.60;99.90
24226;DHT22;51462;51.422;5.514;2023-07-09T15:47:47;26.40;99.90
24226;DHT22;51462;51.422;5.514;2023-07-09T15:52:44;26.50;99.90
24226;DHT22;51462;51.422;5.514;2023-07-09T15:55:18;26.30;99.90
24226;DHT22;51462;51.422;5.514;2023-07-09T15:57:46;26.50;99.90
24226;DHT22;51462;51.422;5.514;2023-07-09T16:00:17;26.60;99.90
24226;DHT22;51462;51.422;5.514;2023-07-09T16:02:43;26.70;99.90
24226;DHT22;51462;51.422;5.514;2023-07-09T16:05:17;26.50;99.90
24226;DHT22;51462;51.422;5.514;2023-07-09T16:07:43;26.60;99.90
24226;DHT22;51462;51.422;5.514;2023-07-09T16:10:08;26.90;99.90
24226;DHT22;51462;51.422;5.514;2023-07-09T16:12:34;27.00;99.90
24226;DHT22;51462;51.422;5.514;2023-07-09T16:15:00;27.10;99.90
24226;DHT22;51462;51.422;5.514;2023-07-09T16:17:25;26.60;99.90
24226;DHT22;51462;51.422;5.514;2023-07-09T16:19:51;26.80;99.90
24226;DHT22;51462;51.422;5.514;2023-07-09T16:22:18;26.90;99.90
24226;DHT22;51462;51.422;5.514;2023-07-09T16:24:44;27.20;99.90